createdAt,value
2024-01-28T00:00:11.085Z,101133.35
2024-01-28T00:01:11.197Z,101128.59
2024-01-28T00:02:11.122Z,101129.16
2024-01-28T00:03:11.107Z,101131.89
2024-01-28T00:04:11.258Z,101132.24
2024-01-28T00:05:11.075Z,101132.70
2024-01-28T00:06:11.238Z,101131.12
2024-01-28T00:07:11.100Z,101131.86
2024-01-28T00:08:11.076Z,101132.19
2024-01-28T00:09:11.115Z,101130.65
2024-01-28T00:10:11.084Z,101131.40
2024-01-28T00:11:11.090Z,101124.59
2024-01-28T00:12:11.123Z,101123.87
2024-01-28T00:13:11.092Z,101120.13
2024-01-28T00:14:11.079Z,101119.81
2024-01-28T00:15:11.103Z,101112.04
2024-01-28T00:16:15.291Z,101112.77
2024-01-28T00:17:12.537Z,101114.51
2024-01-28T00:18:11.280Z,101103.48
2024-01-28T00:19:11.243Z,101112.96
2024-01-28T00:20:11.076Z,101111.38
2024-01-28T00:21:11.111Z,101108.60
2024-01-28T00:22:11.115Z,101111.99
2024-01-28T00:23:11.079Z,101113.34
2024-01-28T00:24:11.092Z,101106.10
2024-01-28T00:25:11.101Z,101110.32
2024-01-28T00:26:11.077Z,101107.68
2024-01-28T00:27:11.113Z,101107.23
2024-01-28T00:28:11.077Z,101108.20
2024-01-28T00:29:11.085Z,101104.96
2024-01-28T00:30:11.223Z,101104.61
2024-01-28T00:31:13.066Z,101103.29
2024-01-28T00:32:11.073Z,101104.95
2024-01-28T00:33:11.320Z,101104.22
2024-01-28T00:34:11.105Z,101102.58
2024-01-28T00:35:11.135Z,101102.29
2024-01-28T00:36:14.148Z,101100.02
2024-01-28T00:37:11.066Z,101094.39
2024-01-28T00:38:11.075Z,101094.00
2024-01-28T00:39:11.089Z,101093.05
2024-01-28T00:40:11.068Z,101094.66
2024-01-28T00:41:11.071Z,101095.93
2024-01-28T00:42:11.107Z,101094.78
2024-01-28T00:43:11.093Z,101092.55
2024-01-28T00:44:11.072Z,101089.70
2024-01-28T00:45:11.072Z,101090.89
2024-01-28T00:46:11.066Z,101084.98
2024-01-28T00:47:11.068Z,101083.43
2024-01-28T00:48:11.203Z,101084.64
2024-01-28T00:49:11.431Z,101080.89
2024-01-28T00:50:11.376Z,101083.14
2024-01-28T00:51:11.101Z,101077.09
2024-01-28T00:52:11.070Z,101077.97
2024-01-28T00:53:11.075Z,101073.04
2024-01-28T00:54:11.107Z,101075.45
2024-01-28T00:55:11.074Z,101067.21
2024-01-28T00:56:11.075Z,101066.06
2024-01-28T00:57:11.088Z,101069.21
2024-01-28T00:58:11.064Z,101061.99
2024-01-28T00:59:11.072Z,101062.24
2024-01-28T01:00:11.151Z,101055.69
2024-01-28T01:01:11.154Z,101055.29
2024-01-28T01:02:11.069Z,101053.96
2024-01-28T01:03:11.166Z,101053.61
2024-01-28T01:04:11.137Z,101047.31
2024-01-28T01:05:11.062Z,101049.27
2024-01-28T01:06:11.180Z,101049.17
2024-01-28T01:07:11.147Z,101042.48
2024-01-28T01:08:11.070Z,101045.06
2024-01-28T01:09:12.112Z,101037.79
2024-01-28T01:10:11.074Z,101037.42
2024-01-28T01:11:11.078Z,101033.02
2024-01-28T01:12:11.116Z,101029.61
2024-01-28T01:13:11.063Z,101022.33
2024-01-28T01:14:11.080Z,101023.43
2024-01-28T01:15:11.089Z,101022.97
2024-01-28T01:16:11.061Z,101025.21
2024-01-28T01:17:11.083Z,101014.93
2024-01-28T01:18:11.199Z,101019.93
2024-01-28T01:19:11.162Z,101018.35
2024-01-28T01:20:11.072Z,101015.42
2024-01-28T01:21:11.118Z,101016.07
2024-01-28T01:22:11.067Z,101018.07
2024-01-28T01:23:11.077Z,101015.56
2024-01-28T01:24:11.101Z,101017.43
2024-01-28T01:25:11.085Z,101013.25
2024-01-28T01:26:11.064Z,101012.84
2024-01-28T01:27:11.173Z,101011.36
2024-01-28T01:28:11.198Z,101012.12
2024-01-28T01:29:11.067Z,101010.07
2024-01-28T01:30:11.128Z,101014.07
2024-01-28T01:31:11.080Z,101009.85
2024-01-28T01:32:11.073Z,101007.38
2024-01-28T01:33:11.166Z,101002.61
2024-01-28T01:34:11.200Z,101007.34
2024-01-28T01:35:11.189Z,101003.49
2024-01-28T01:36:11.096Z,100998.16
2024-01-28T01:37:11.065Z,101002.52
2024-01-28T01:38:11.081Z,100997.34
2024-01-28T01:39:11.066Z,100995.36
2024-01-28T01:40:11.095Z,100992.64
2024-01-28T01:41:11.064Z,100988.29
2024-01-28T01:42:11.075Z,100984.29
2024-01-28T01:43:11.087Z,100984.05
2024-01-28T01:44:11.069Z,100980.97
2024-01-28T01:45:11.089Z,100980.51
2024-01-28T01:46:11.077Z,100976.84
2024-01-28T01:47:11.076Z,100981.23
2024-01-28T01:48:13.214Z,100982.49
2024-01-28T01:49:11.156Z,100982.46
2024-01-28T01:50:11.111Z,100980.78
2024-01-28T01:51:11.091Z,100977.30
2024-01-28T01:52:11.071Z,100982.80
2024-01-28T01:53:11.066Z,100970.36
2024-01-28T01:54:11.094Z,100976.91
2024-01-28T01:55:11.073Z,100980.62
2024-01-28T01:56:11.066Z,100979.20
2024-01-28T01:57:11.093Z,100979.58
2024-01-28T01:58:11.069Z,100970.90
2024-01-28T01:59:11.069Z,100976.32
2024-01-28T02:00:11.089Z,100972.09
2024-01-28T02:01:11.114Z,100963.54
2024-01-28T02:02:11.080Z,100967.63
2024-01-28T02:03:11.183Z,100963.12
2024-01-28T02:04:11.125Z,100963.82
2024-01-28T02:05:11.084Z,100959.18
2024-01-28T02:06:11.084Z,100959.97
2024-01-28T02:07:11.078Z,100955.89
2024-01-28T02:08:11.073Z,100955.00
2024-01-28T02:09:12.099Z,100955.26
2024-01-28T02:10:11.201Z,100954.93
2024-01-28T02:11:11.072Z,100954.28
2024-01-28T02:12:11.092Z,100947.43
2024-01-28T02:13:11.074Z,100943.89
2024-01-28T02:14:11.074Z,100944.87
2024-01-28T02:15:11.126Z,100943.65
2024-01-28T02:16:11.071Z,100941.62
2024-01-28T02:17:11.072Z,100938.41
2024-01-28T02:18:11.211Z,100935.96
2024-01-28T02:19:11.192Z,100933.43
2024-01-28T02:20:11.073Z,100926.34
2024-01-28T02:21:11.150Z,100927.24
2024-01-28T02:22:11.070Z,100919.65
2024-01-28T02:23:11.076Z,100915.71
2024-01-28T02:24:11.098Z,100916.85
2024-01-28T02:25:11.072Z,100910.39
2024-01-28T02:26:11.086Z,100910.81
2024-01-28T02:27:11.119Z,100910.08
2024-01-28T02:28:11.083Z,100908.62
2024-01-28T02:29:11.079Z,100906.16
2024-01-28T02:30:11.108Z,100910.90
2024-01-28T02:31:11.078Z,100910.39
2024-01-28T02:32:11.070Z,100909.20
2024-01-28T02:33:11.231Z,100904.31
2024-01-28T02:34:11.158Z,100909.95
2024-01-28T02:35:11.082Z,100908.41
2024-01-28T02:36:11.080Z,100905.48
2024-01-28T02:37:11.078Z,100908.46
2024-01-28T02:38:11.084Z,100907.58
2024-01-28T02:39:11.107Z,100908.91
2024-01-28T02:40:11.074Z,100907.08
2024-01-28T02:41:11.082Z,100906.48
2024-01-28T02:42:11.101Z,100904.02
2024-01-28T02:43:11.074Z,100902.34
2024-01-28T02:44:11.078Z,100905.44
2024-01-28T02:45:11.119Z,100900.51
2024-01-28T02:46:11.072Z,100900.27
2024-01-28T02:47:11.076Z,100896.61
2024-01-28T02:48:11.164Z,100895.19
2024-01-28T02:49:11.142Z,100895.80
2024-01-28T02:50:11.078Z,100894.15
2024-01-28T02:51:11.119Z,100891.06
2024-01-28T02:52:11.085Z,100889.33
2024-01-28T02:53:11.084Z,100889.06
2024-01-28T02:54:11.105Z,100885.32
2024-01-28T02:55:11.085Z,100888.14
2024-01-28T02:56:11.084Z,100886.72
2024-01-28T02:57:11.103Z,100882.50
2024-01-28T02:58:11.076Z,100887.29
2024-01-28T02:59:11.081Z,100882.04
2024-01-28T03:00:11.097Z,100880.61
2024-01-28T03:01:11.158Z,100878.79
2024-01-28T03:02:11.082Z,100879.78
2024-01-28T03:03:11.146Z,100879.20
2024-01-28T03:04:11.147Z,100878.12
2024-01-28T03:05:13.173Z,100877.36
2024-01-28T03:06:11.131Z,100876.29
2024-01-28T03:07:11.136Z,100870.87
2024-01-28T03:08:11.077Z,100875.21
2024-01-28T03:09:11.145Z,100875.32
2024-01-28T03:10:11.115Z,100875.74
2024-01-28T03:11:11.093Z,100873.34
2024-01-28T03:12:11.135Z,100873.37
2024-01-28T03:13:11.076Z,100871.79
2024-01-28T03:14:11.088Z,100871.00
2024-01-28T03:15:11.117Z,100865.30
2024-01-28T03:16:11.072Z,100865.73
2024-01-28T03:17:11.079Z,100868.96
2024-01-28T03:18:11.161Z,100867.57
2024-01-28T03:19:11.227Z,100860.73
2024-01-28T03:20:11.080Z,100863.45
2024-01-28T03:21:11.097Z,100864.52
2024-01-28T03:22:11.076Z,100859.41
2024-01-28T03:23:11.078Z,100860.30
2024-01-28T03:24:11.117Z,100862.22
2024-01-28T03:25:11.084Z,100862.32
2024-01-28T03:26:12.075Z,100862.96
2024-01-28T03:27:11.140Z,100862.57
2024-01-28T03:28:11.076Z,100860.68
2024-01-28T03:29:11.077Z,100854.68
2024-01-28T03:30:11.108Z,100853.38
2024-01-28T03:31:11.073Z,100858.64
2024-01-28T03:32:11.059Z,100855.39
2024-01-28T03:33:11.266Z,100855.11
2024-01-28T03:34:11.196Z,100856.88
2024-01-28T03:35:11.122Z,100853.77
2024-01-28T03:36:11.091Z,100852.60
2024-01-28T03:37:11.062Z,100851.95
2024-01-28T03:38:11.074Z,100853.46
2024-01-28T03:39:11.089Z,100851.42
2024-01-28T03:40:11.060Z,100849.02
2024-01-28T03:41:11.086Z,100848.30
2024-01-28T03:42:11.133Z,100846.71
2024-01-28T03:43:11.079Z,100842.98
2024-01-28T03:44:11.059Z,100841.16
2024-01-28T03:45:11.142Z,100839.66
2024-01-28T03:46:11.058Z,100835.46
2024-01-28T03:47:11.058Z,100833.64
2024-01-28T03:48:11.190Z,100835.10
2024-01-28T03:49:11.203Z,100830.25
2024-01-28T03:50:11.067Z,100823.86
2024-01-28T03:51:11.092Z,100820.07
2024-01-28T03:52:11.066Z,100817.39
2024-01-28T03:53:11.068Z,100813.25
2024-01-28T03:54:11.090Z,100812.05
2024-01-28T03:55:11.061Z,100809.82
2024-01-28T03:56:11.210Z,100810.49
2024-01-28T03:57:11.074Z,100805.66
2024-01-28T03:58:11.065Z,100803.34
2024-01-28T03:59:11.058Z,100802.43
2024-01-28T04:00:11.083Z,100799.56
2024-01-28T04:01:11.265Z,100791.11
2024-01-28T04:02:11.104Z,100791.22
2024-01-28T04:03:11.075Z,100790.50
2024-01-28T04:04:11.071Z,100792.22
2024-01-28T04:05:11.142Z,100790.10
2024-01-28T04:06:11.209Z,100791.28
2024-01-28T04:07:11.350Z,100789.99
2024-01-28T04:08:13.078Z,100790.72
2024-01-28T04:09:11.081Z,100791.18
2024-01-28T04:10:11.063Z,100791.22
2024-01-28T04:11:11.065Z,100791.40
2024-01-28T04:12:11.115Z,100792.70
2024-01-28T04:13:11.063Z,100789.71
2024-01-28T04:14:11.062Z,100790.68
2024-01-28T04:15:11.135Z,100789.64
2024-01-28T04:16:11.259Z,100789.16
2024-01-28T04:17:11.063Z,100789.79
2024-01-28T04:18:11.227Z,100788.48
2024-01-28T04:19:11.130Z,100787.70
2024-01-28T04:20:11.086Z,100789.02
2024-01-28T04:21:11.078Z,100789.34
2024-01-28T04:22:11.073Z,100789.75
2024-01-28T04:23:11.066Z,100787.11
2024-01-28T04:24:11.086Z,100787.30
2024-01-28T04:25:11.077Z,100784.55
2024-01-28T04:26:11.070Z,100782.20
2024-01-28T04:27:11.081Z,100784.09
2024-01-28T04:28:11.109Z,100781.22
2024-01-28T04:29:11.069Z,100781.32
2024-01-28T04:30:11.144Z,100779.25
2024-01-28T04:31:11.073Z,100783.88
2024-01-28T04:32:11.069Z,100777.86
2024-01-28T04:33:11.270Z,100782.67
2024-01-28T04:34:11.303Z,100783.24
2024-01-28T04:35:13.075Z,100781.80
2024-01-28T04:36:11.138Z,100777.59
2024-01-28T04:37:11.080Z,100778.45
2024-01-28T04:38:11.071Z,100781.20
2024-01-28T04:39:11.101Z,100776.41
2024-01-28T04:40:11.081Z,100775.94
2024-01-28T04:41:11.070Z,100773.37
2024-01-28T04:42:11.105Z,100776.26
2024-01-28T04:43:11.074Z,100772.66
2024-01-28T04:44:11.073Z,100772.21
2024-01-28T04:45:11.082Z,100768.75
2024-01-28T04:46:11.069Z,100768.14
2024-01-28T04:47:11.077Z,100768.68
2024-01-28T04:48:11.203Z,100766.54
2024-01-28T04:49:11.250Z,100763.96
2024-01-28T04:50:11.150Z,100769.00
2024-01-28T04:51:11.092Z,100762.51
2024-01-28T04:52:11.112Z,100766.59
2024-01-28T04:53:11.073Z,100761.82
2024-01-28T04:54:11.124Z,100756.93
2024-01-28T04:55:11.089Z,100760.04
2024-01-28T04:56:11.069Z,100756.09
2024-01-28T04:57:11.121Z,100757.34
2024-01-28T04:58:11.074Z,100754.64
2024-01-28T04:59:11.083Z,100752.91
2024-01-28T05:00:11.105Z,100750.19
2024-01-28T05:01:11.115Z,100752.96
2024-01-28T05:02:11.072Z,100749.84
2024-01-28T05:03:11.188Z,100748.47
2024-01-28T05:04:11.153Z,100747.04
2024-01-28T05:05:11.094Z,100746.89
2024-01-28T05:06:11.168Z,100734.50
2024-01-28T05:07:11.133Z,100742.30
2024-01-28T05:08:11.072Z,100738.29
2024-01-28T05:09:11.112Z,100739.85
2024-01-28T05:10:11.078Z,100734.27
2024-01-28T05:11:11.117Z,100737.83
2024-01-28T05:12:11.153Z,100734.61
2024-01-28T05:13:11.086Z,100726.67
2024-01-28T05:14:11.084Z,100720.37
2024-01-28T05:15:11.144Z,100719.58
2024-01-28T05:16:11.079Z,100719.83
2024-01-28T05:17:11.078Z,100717.97
2024-01-28T05:18:11.278Z,100718.84
2024-01-28T05:19:12.132Z,100717.16
2024-01-28T05:20:13.093Z,100716.63
2024-01-28T05:21:11.140Z,100718.20
2024-01-28T05:22:11.086Z,100716.89
2024-01-28T05:23:11.076Z,100718.71
2024-01-28T05:24:11.128Z,100717.66
2024-01-28T05:25:11.136Z,100716.45
2024-01-28T05:26:11.112Z,100715.24
2024-01-28T05:27:11.128Z,100715.86
2024-01-28T05:28:11.089Z,100715.73
2024-01-28T05:29:11.078Z,100710.48
2024-01-28T05:30:11.226Z,100708.94
2024-01-28T05:31:11.082Z,100704.60
2024-01-28T05:32:11.082Z,100704.47
2024-01-28T05:33:11.315Z,100704.41
2024-01-28T05:34:11.280Z,100702.78
2024-01-28T05:35:11.081Z,100702.61
2024-01-28T05:36:13.112Z,100704.51
2024-01-28T05:37:11.086Z,100702.35
2024-01-28T05:38:11.084Z,100696.77
2024-01-28T05:39:11.095Z,100696.88
2024-01-28T05:40:11.073Z,100696.77
2024-01-28T05:41:11.090Z,100695.37
2024-01-28T05:42:11.170Z,100695.16
2024-01-28T05:43:11.075Z,100698.01
2024-01-28T05:44:11.102Z,100698.65
2024-01-28T05:45:11.111Z,100694.06
2024-01-28T05:46:11.074Z,100697.36
2024-01-28T05:47:11.091Z,100694.44
2024-01-28T05:48:11.177Z,100691.68
2024-01-28T05:49:11.158Z,100693.67
2024-01-28T05:50:11.077Z,100691.17
2024-01-28T05:51:11.161Z,100691.94
2024-01-28T05:52:11.077Z,100688.72
2024-01-28T05:53:11.078Z,100688.89
2024-01-28T05:54:11.083Z,100686.14
2024-01-28T05:55:11.076Z,100677.66
2024-01-28T05:56:11.084Z,100683.14
2024-01-28T05:57:11.250Z,100677.73
2024-01-28T05:58:11.081Z,100681.54
2024-01-28T05:59:11.087Z,100675.43
2024-01-28T06:00:11.160Z,100678.66
2024-01-28T06:01:11.120Z,100672.82
2024-01-28T06:02:11.088Z,100671.39
2024-01-28T06:03:11.096Z,100667.05
2024-01-28T06:04:11.429Z,100667.36
2024-01-28T06:05:11.078Z,100669.77
2024-01-28T06:06:11.149Z,100674.17
2024-01-28T06:07:11.123Z,100673.78
2024-01-28T06:08:11.076Z,100671.93
2024-01-28T06:09:11.103Z,100673.15
2024-01-28T06:10:11.072Z,100675.32
2024-01-28T06:11:11.080Z,100671.28
2024-01-28T06:12:11.103Z,100674.07
2024-01-28T06:13:11.187Z,100673.32
2024-01-28T06:14:11.079Z,100672.09
2024-01-28T06:15:13.118Z,100672.24
2024-01-28T06:16:11.077Z,100670.17
2024-01-28T06:17:11.071Z,100669.63
2024-01-28T06:18:11.099Z,100666.88
2024-01-28T06:19:11.285Z,100667.86
2024-01-28T06:20:11.071Z,100664.44
2024-01-28T06:21:11.095Z,100662.12
2024-01-28T06:22:11.068Z,100660.90
2024-01-28T06:23:11.082Z,100661.14
2024-01-28T06:24:11.114Z,100659.00
2024-01-28T06:25:11.089Z,100659.37
2024-01-28T06:26:11.092Z,100656.85
2024-01-28T06:27:11.158Z,100652.49
2024-01-28T06:28:11.069Z,100657.12
2024-01-28T06:29:11.075Z,100653.51
2024-01-28T06:30:11.100Z,100651.16
2024-01-28T06:31:11.051Z,100654.83
2024-01-28T06:32:11.071Z,100650.14
2024-01-28T06:33:11.170Z,100649.59
2024-01-28T06:34:11.104Z,100648.07
2024-01-28T06:35:11.074Z,100647.01
2024-01-28T06:36:11.089Z,100644.65
2024-01-28T06:37:11.062Z,100646.46
2024-01-28T06:38:11.069Z,100640.82
2024-01-28T06:39:11.099Z,100640.91
2024-01-28T06:40:11.066Z,100639.07
2024-01-28T06:41:11.062Z,100643.90
2024-01-28T06:42:11.063Z,100638.92
2024-01-28T06:43:11.064Z,100645.12
2024-01-28T06:44:11.061Z,100644.67
2024-01-28T06:45:12.087Z,100637.18
2024-01-28T06:46:11.058Z,100640.17
2024-01-28T06:47:11.084Z,100643.05
2024-01-28T06:48:11.102Z,100642.39
2024-01-28T06:49:11.141Z,100643.76
2024-01-28T06:50:11.145Z,100642.55
2024-01-28T06:51:11.231Z,100640.39
2024-01-28T06:52:11.066Z,100638.25
2024-01-28T06:53:11.066Z,100635.98
2024-01-28T06:54:11.075Z,100633.49
2024-01-28T06:55:11.084Z,100638.77
2024-01-28T06:56:11.058Z,100635.73
2024-01-28T06:57:11.109Z,100631.55
2024-01-28T06:58:11.069Z,100635.31
2024-01-28T06:59:11.062Z,100638.73
2024-01-28T07:00:11.152Z,100636.91
2024-01-28T07:01:12.399Z,100636.03
2024-01-28T07:02:11.083Z,100633.79
2024-01-28T07:03:11.217Z,100633.41
2024-01-28T07:04:11.198Z,100636.27
2024-01-28T07:05:11.065Z,100634.13
2024-01-28T07:06:12.219Z,100634.16
2024-01-28T07:07:11.108Z,100631.64
2024-01-28T07:08:11.066Z,100636.19
2024-01-28T07:09:11.137Z,100635.44
2024-01-28T07:10:11.301Z,100633.21
2024-01-28T07:11:11.072Z,100630.52
2024-01-28T07:12:11.110Z,100626.62
2024-01-28T07:13:11.078Z,100629.72
2024-01-28T07:14:11.071Z,100627.43
2024-01-28T07:15:11.132Z,100624.60
2024-01-28T07:16:11.067Z,100627.70
2024-01-28T07:17:11.070Z,100627.39
2024-01-28T07:18:11.172Z,100625.47
2024-01-28T07:19:11.129Z,100619.22
2024-01-28T07:20:11.080Z,100619.65
2024-01-28T07:21:11.111Z,100619.82
2024-01-28T07:22:11.070Z,100622.24
2024-01-28T07:23:11.082Z,100618.49
2024-01-28T07:24:11.092Z,100619.38
2024-01-28T07:25:11.063Z,100623.29
2024-01-28T07:26:11.067Z,100620.89
2024-01-28T07:27:11.106Z,100619.12
2024-01-28T07:28:11.069Z,100615.40
2024-01-28T07:29:11.071Z,100619.14
2024-01-28T07:30:11.092Z,100613.23
2024-01-28T07:31:11.084Z,100612.12
2024-01-28T07:32:11.062Z,100608.38
2024-01-28T07:33:12.232Z,100604.09
2024-01-28T07:34:11.204Z,100605.72
2024-01-28T07:35:11.078Z,100605.35
2024-01-28T07:36:11.111Z,100608.34
2024-01-28T07:37:11.118Z,100601.38
2024-01-28T07:38:11.093Z,100598.89
2024-01-28T07:39:11.091Z,100594.08
2024-01-28T07:40:11.064Z,100600.38
2024-01-28T07:41:11.082Z,100596.53
2024-01-28T07:42:11.100Z,100597.93
2024-01-28T07:43:11.073Z,100592.45
2024-01-28T07:44:11.075Z,100595.91
2024-01-28T07:45:11.204Z,100591.39
2024-01-28T07:46:11.089Z,100594.48
2024-01-28T07:47:11.076Z,100595.75
2024-01-28T07:48:11.225Z,100599.01
2024-01-28T07:49:11.139Z,100602.63
2024-01-28T07:50:11.363Z,100599.78
2024-01-28T07:51:11.123Z,100600.84
2024-01-28T07:52:11.076Z,100597.44
2024-01-28T07:53:11.074Z,100594.37
2024-01-28T07:54:11.108Z,100597.73
2024-01-28T07:55:11.066Z,100595.42
2024-01-28T07:56:11.080Z,100597.93
2024-01-28T07:57:11.109Z,100595.05
2024-01-28T07:58:11.079Z,100597.40
2024-01-28T07:59:11.095Z,100601.02
2024-01-28T08:00:11.143Z,100593.52
2024-01-28T08:01:11.072Z,100595.81
2024-01-28T08:02:11.106Z,100598.21
2024-01-28T08:03:11.091Z,100596.26
2024-01-28T08:04:11.133Z,100599.65
2024-01-28T08:05:11.126Z,100602.25
2024-01-28T08:06:11.355Z,100599.45
2024-01-28T08:07:11.174Z,100596.64
2024-01-28T08:08:12.591Z,100597.31
2024-01-28T08:09:11.089Z,100597.79
2024-01-28T08:10:11.076Z,100598.36
2024-01-28T08:11:11.072Z,100597.71
2024-01-28T08:12:11.101Z,100596.54
2024-01-28T08:13:11.072Z,100598.16
2024-01-28T08:14:11.091Z,100594.90
2024-01-28T08:15:11.127Z,100598.04
2024-01-28T08:16:11.080Z,100592.30
2024-01-28T08:17:11.067Z,100589.98
2024-01-28T08:18:11.232Z,100586.75
2024-01-28T08:19:11.235Z,100587.67
2024-01-28T08:20:11.069Z,100584.87
2024-01-28T08:21:11.126Z,100582.75
2024-01-28T08:22:11.778Z,100586.93
2024-01-28T08:23:11.070Z,100587.44
2024-01-28T08:24:11.091Z,100582.10
2024-01-28T08:25:11.153Z,100578.10
2024-01-28T08:26:11.127Z,100574.52
2024-01-28T08:27:11.124Z,100574.88
2024-01-28T08:28:11.078Z,100575.04
2024-01-28T08:29:11.080Z,100576.30
2024-01-28T08:30:11.110Z,100573.15
2024-01-28T08:31:11.069Z,100573.08
2024-01-28T08:32:11.074Z,100572.04
2024-01-28T08:33:11.180Z,100576.08
2024-01-28T08:34:11.198Z,100573.91
2024-01-28T08:35:11.118Z,100571.79
2024-01-28T08:36:11.103Z,100575.80
2024-01-28T08:37:11.071Z,100571.46
2024-01-28T08:38:11.069Z,100572.41
2024-01-28T08:39:11.145Z,100574.48
2024-01-28T08:40:12.075Z,100574.25
2024-01-28T08:41:11.075Z,100570.62
2024-01-28T08:42:11.103Z,100577.34
2024-01-28T08:43:11.069Z,100570.46
2024-01-28T08:44:11.073Z,100576.18
2024-01-28T08:45:11.108Z,100567.57
2024-01-28T08:46:11.068Z,100571.52
2024-01-28T08:47:11.091Z,100568.37
2024-01-28T08:48:11.271Z,100568.44
2024-01-28T08:49:11.133Z,100577.96
2024-01-28T08:50:11.134Z,100570.87
2024-01-28T08:51:11.167Z,100575.00
2024-01-28T08:52:11.080Z,100576.09
2024-01-28T08:53:11.079Z,100575.51
2024-01-28T08:54:11.087Z,100570.54
2024-01-28T08:55:11.073Z,100577.49
2024-01-28T08:56:11.084Z,100572.93
2024-01-28T08:57:11.092Z,100569.25
2024-01-28T08:58:11.069Z,100571.41
2024-01-28T08:59:11.078Z,100572.95
2024-01-28T09:00:11.095Z,100574.26
2024-01-28T09:01:11.115Z,100577.62
2024-01-28T09:02:11.098Z,100574.25
2024-01-28T09:03:11.202Z,100570.16
2024-01-28T09:04:11.179Z,100568.37
2024-01-28T09:05:11.148Z,100567.93
2024-01-28T09:06:11.254Z,100567.25
2024-01-28T09:07:11.205Z,100566.64
2024-01-28T09:08:11.071Z,100566.86
2024-01-28T09:09:13.104Z,100561.86
2024-01-28T09:10:11.071Z,100554.90
2024-01-28T09:11:11.116Z,100556.05
2024-01-28T09:12:11.134Z,100552.29
2024-01-28T09:13:11.095Z,100556.28
2024-01-28T09:14:11.077Z,100552.43
2024-01-28T09:15:11.149Z,100553.21
2024-01-28T09:16:11.086Z,100556.47
2024-01-28T09:17:11.079Z,100553.12
2024-01-28T09:18:11.265Z,100556.00
2024-01-28T09:19:11.136Z,100555.34
2024-01-28T09:20:11.171Z,100554.92
2024-01-28T09:21:11.132Z,100554.80
2024-01-28T09:22:11.078Z,100553.59
2024-01-28T09:23:11.078Z,100553.98
2024-01-28T09:24:11.126Z,100554.71
2024-01-28T09:25:11.100Z,100548.43
2024-01-28T09:26:11.081Z,100550.98
2024-01-28T09:27:11.087Z,100553.15
2024-01-28T09:28:11.086Z,100546.44
2024-01-28T09:29:11.080Z,100545.89
2024-01-28T09:30:11.245Z,100545.17
2024-01-28T09:31:11.175Z,100540.90
2024-01-28T09:32:11.074Z,100540.29
2024-01-28T09:33:11.196Z,100538.76
2024-01-28T09:34:11.117Z,100545.11
2024-01-28T09:35:11.109Z,100539.52
2024-01-28T09:36:11.091Z,100539.82
2024-01-28T09:37:12.068Z,100536.02
2024-01-28T09:38:11.086Z,100534.12
2024-01-28T09:39:11.126Z,100534.20
2024-01-28T09:40:11.065Z,100534.35
2024-01-28T09:41:21.069Z,100532.81
2024-01-28T09:42:18.113Z,100534.51
2024-01-28T09:43:21.070Z,100531.79
2024-01-28T09:44:11.249Z,100524.96
2024-01-28T09:45:11.127Z,100517.13
2024-01-28T09:46:11.073Z,100510.67
2024-01-28T09:47:11.063Z,100510.95
2024-01-28T09:48:11.192Z,100512.66
2024-01-28T09:49:11.194Z,100509.39
2024-01-28T09:50:12.105Z,100511.09
2024-01-28T09:51:11.123Z,100507.44
2024-01-28T09:52:13.084Z,100507.45
2024-01-28T09:53:11.063Z,100513.21
2024-01-28T09:54:11.288Z,100513.00
2024-01-28T09:55:11.063Z,100518.55
2024-01-28T09:56:11.068Z,100515.50
2024-01-28T09:57:11.100Z,100516.36
2024-01-28T09:58:11.081Z,100517.26
2024-01-28T09:59:13.062Z,100515.14
2024-01-28T10:00:11.150Z,100516.81
2024-01-28T10:01:11.080Z,100513.99
2024-01-28T10:02:11.074Z,100520.71
2024-01-28T10:03:11.165Z,100526.42
2024-01-28T10:04:11.140Z,100527.88
2024-01-28T10:05:15.099Z,100530.86
2024-01-28T10:06:11.111Z,100532.34
2024-01-28T10:07:12.150Z,100531.08
2024-01-28T10:08:11.070Z,100530.88
2024-01-28T10:09:11.164Z,100528.38
2024-01-28T10:10:11.066Z,100529.04
2024-01-28T10:11:11.064Z,100528.29
2024-01-28T10:12:11.093Z,100530.69
2024-01-28T10:13:11.064Z,100533.28
2024-01-28T10:14:11.811Z,100531.79
2024-01-28T10:15:15.217Z,100530.88
2024-01-28T10:16:11.073Z,100530.37
2024-01-28T10:17:11.064Z,100530.98
2024-01-28T10:18:11.182Z,100528.51
2024-01-28T10:19:11.176Z,100536.76
2024-01-28T10:20:12.158Z,100531.03
2024-01-28T10:21:11.104Z,100535.80
2024-01-28T10:22:12.282Z,100537.89
2024-01-28T10:23:11.062Z,100536.84
2024-01-28T10:24:15.183Z,100536.19
2024-01-28T10:25:13.062Z,100538.66
2024-01-28T10:26:11.062Z,100540.84
2024-01-28T10:27:11.123Z,100543.29
2024-01-28T10:28:11.064Z,100543.56
2024-01-28T10:29:11.072Z,100543.35
2024-01-28T10:30:11.147Z,100540.65
2024-01-28T10:31:11.073Z,100538.85
2024-01-28T10:32:11.071Z,100542.45
2024-01-28T10:33:15.470Z,100540.43
2024-01-28T10:34:11.297Z,100533.59
2024-01-28T10:35:11.101Z,100533.57
2024-01-28T10:36:11.215Z,100533.50
2024-01-28T10:37:11.061Z,100530.62
2024-01-28T10:38:15.128Z,100526.37
2024-01-28T10:39:15.395Z,100528.88
2024-01-28T10:40:16.172Z,100525.78
2024-01-28T10:41:11.066Z,100527.47
2024-01-28T10:42:13.122Z,100527.31
2024-01-28T10:43:13.066Z,100533.16
2024-01-28T10:44:11.063Z,100530.27
2024-01-28T10:45:13.226Z,100527.52
2024-01-28T10:46:11.139Z,100526.59
2024-01-28T10:47:14.067Z,100523.89
2024-01-28T10:48:17.248Z,100519.95
2024-01-28T10:49:11.242Z,100519.99
2024-01-28T10:50:11.090Z,100519.53
2024-01-28T10:51:14.871Z,100517.43
2024-01-28T10:52:11.079Z,100516.96
2024-01-28T10:53:11.061Z,100511.73
2024-01-28T10:54:11.158Z,100514.32
2024-01-28T10:55:11.099Z,100514.71
2024-01-28T10:56:11.183Z,100515.72
2024-01-28T10:57:13.886Z,100507.35
2024-01-28T10:58:11.100Z,100500.95
2024-01-28T10:59:11.066Z,100496.03
2024-01-28T11:00:11.074Z,100497.07
2024-01-28T11:01:11.306Z,100502.40
2024-01-28T11:02:11.068Z,100496.61
2024-01-28T11:03:12.164Z,100499.62
2024-01-28T11:04:11.344Z,100498.51
2024-01-28T11:05:11.116Z,100499.60
2024-01-28T11:06:11.280Z,100504.49
2024-01-28T11:07:11.075Z,100506.42
2024-01-28T11:08:11.070Z,100505.52
2024-01-28T11:09:11.176Z,100500.96
2024-01-28T11:10:11.076Z,100500.69
2024-01-28T11:11:11.068Z,100494.09
2024-01-28T11:12:11.095Z,100495.16
2024-01-28T11:13:11.076Z,100492.40
2024-01-28T11:14:11.085Z,100497.84
2024-01-28T11:15:15.359Z,100500.16
2024-01-28T11:16:11.072Z,100495.41
2024-01-28T11:17:13.076Z,100495.34
2024-01-28T11:18:11.231Z,100495.43
2024-01-28T11:19:16.255Z,100494.36
2024-01-28T11:20:15.069Z,100489.79
2024-01-28T11:21:13.110Z,100488.70
2024-01-28T11:22:15.081Z,100491.69
2024-01-28T11:23:15.069Z,100488.08
2024-01-28T11:24:14.143Z,100490.44